createdAt,value
2019-06-15T00:00:41.245Z,24.33
2019-06-15T00:03:27.849Z,24.95
2019-06-15T00:06:15.681Z,25.11
2019-06-15T00:09:02.449Z,25.20
2019-06-15T00:11:50.345Z,24.64
2019-06-15T00:14:37.571Z,24.51
2019-06-15T00:17:25.300Z,24.42
2019-06-15T00:20:12.291Z,24.37
2019-06-15T00:22:59.545Z,24.34
2019-06-15T00:25:46.997Z,24.30
2019-06-15T00:28:33.886Z,24.29
2019-06-15T00:31:20.808Z,24.26
2019-06-15T00:34:22.029Z,24.21
2019-06-15T00:37:09.960Z,24.15
2019-06-15T00:40:00.264Z,24.09
2019-06-15T00:42:48.914Z,24.03
2019-06-15T00:45:35.513Z,23.97
2019-06-15T00:48:22.744Z,23.93
2019-06-15T00:51:10.763Z,23.87
2019-06-15T00:54:01.054Z,23.85
2019-06-15T00:59:57.251Z,23.74
2019-06-15T01:02:44.851Z,23.69
2019-06-15T01:05:32.149Z,23.66
2019-06-15T01:08:19.478Z,23.60
2019-06-15T01:11:07.593Z,23.54
2019-06-15T01:13:57.779Z,23.51
2019-06-15T01:16:44.389Z,23.48
2019-06-15T01:19:31.221Z,24.03
2019-06-15T01:22:18.361Z,23.61
2019-06-15T01:25:15.672Z,23.51
2019-06-15T01:28:09.689Z,23.46
2019-06-15T01:30:56.689Z,23.42
2019-06-15T01:33:44.409Z,23.38
2019-06-15T01:39:50.779Z,23.29
2019-06-15T01:42:38.595Z,23.25
2019-06-15T01:48:31.386Z,23.84
2019-06-15T01:51:25.968Z,24.01
2019-06-15T01:54:12.689Z,23.55
2019-06-15T01:56:59.488Z,23.42
2019-06-15T01:59:46.701Z,23.36
2019-06-15T02:02:34.139Z,23.33
2019-06-15T02:05:21.776Z,23.32
2019-06-15T02:08:09.262Z,23.34
2019-06-15T02:10:56.506Z,23.35
2019-06-15T02:13:44.063Z,23.36
2019-06-15T02:16:31.597Z,23.37
2019-06-15T02:19:18.776Z,23.37
2019-06-15T02:22:05.726Z,23.37
2019-06-15T02:24:53.419Z,23.36
2019-06-15T02:27:40.126Z,23.36
2019-06-15T02:30:27.340Z,23.33
2019-06-15T02:33:14.675Z,23.30
2019-06-15T02:36:02.329Z,23.25
2019-06-15T02:38:50.229Z,23.20
2019-06-15T02:41:37.542Z,23.16
2019-06-15T02:44:24.582Z,23.12
2019-06-15T02:47:12.208Z,23.06
2019-06-15T02:53:05.495Z,23.00
2019-06-15T02:55:52.103Z,22.97
2019-06-15T02:58:39.501Z,22.95
2019-06-15T03:01:26.743Z,22.90
2019-06-15T03:04:13.645Z,22.90
2019-06-15T03:07:00.462Z,22.93
2019-06-15T03:09:47.475Z,22.97
2019-06-15T03:12:34.415Z,23.03
2019-06-15T03:15:21.220Z,23.07
2019-06-15T03:18:08.369Z,23.17
2019-06-15T03:20:56.353Z,23.88
2019-06-15T03:23:43.146Z,23.59
2019-06-15T03:26:30.899Z,24.24
2019-06-15T03:29:17.718Z,23.89
2019-06-15T03:32:05.070Z,23.86
2019-06-15T03:35:00.311Z,24.47
2019-06-15T03:37:50.752Z,24.65
2019-06-15T03:40:38.286Z,24.11
2019-06-15T03:43:31.745Z,24.02
2019-06-15T03:46:19.035Z,23.97
2019-06-15T03:49:06.068Z,23.95
2019-06-15T03:51:54.936Z,23.93
2019-06-15T03:54:42.096Z,23.92
2019-06-15T03:57:30.896Z,23.91
2019-06-15T04:00:30.402Z,23.90
2019-06-15T04:03:17.729Z,23.89
2019-06-15T04:06:07.630Z,23.92
2019-06-15T04:08:55.324Z,23.93
2019-06-15T04:11:43.355Z,23.92
2019-06-15T04:14:30.827Z,23.93
2019-06-15T04:17:18.517Z,23.93
2019-06-15T04:20:06.980Z,23.90
2019-06-15T04:22:54.463Z,23.94
2019-06-15T04:25:44.244Z,23.96
2019-06-15T04:28:32.407Z,24.04
2019-06-15T04:31:19.132Z,24.15
2019-06-15T04:34:05.836Z,24.24
2019-06-15T04:36:52.739Z,24.35
2019-06-15T04:39:41.645Z,24.43
2019-06-15T04:42:35.601Z,24.54
2019-06-15T04:45:24.337Z,24.66
2019-06-15T04:48:11.780Z,24.79
2019-06-15T04:51:00.247Z,24.90
2019-06-15T04:53:46.938Z,24.99
2019-06-15T04:56:33.558Z,25.12
2019-06-15T04:59:23.427Z,25.21
2019-06-15T05:02:27.330Z,25.25
2019-06-15T05:05:11.908Z,25.36
2019-06-15T05:07:59.575Z,25.46
2019-06-15T05:10:46.740Z,26.35
2019-06-15T05:13:40.946Z,25.75
2019-06-15T05:16:28.344Z,25.68
2019-06-15T05:19:15.290Z,25.66
2019-06-15T05:22:02.539Z,26.55
2019-06-15T05:24:50.022Z,26.82
2019-06-15T05:27:36.564Z,26.23
2019-06-15T05:30:27.421Z,26.16
2019-06-15T05:33:28.675Z,26.18
2019-06-15T05:36:15.989Z,26.23
2019-06-15T05:39:03.095Z,26.28
2019-06-15T05:41:51.526Z,26.36
2019-06-15T05:44:46.009Z,26.45
2019-06-15T05:47:32.951Z,26.57
2019-06-15T05:50:20.469Z,26.73
2019-06-15T05:53:07.384Z,26.81
2019-06-15T05:55:54.294Z,26.91
2019-06-15T05:58:42.135Z,27.94
2019-06-15T06:01:35.806Z,28.24
2019-06-15T06:04:22.954Z,27.52
2019-06-15T06:07:12.012Z,27.30
2019-06-15T06:10:00.053Z,27.17
2019-06-15T06:12:47.553Z,27.20
2019-06-15T06:15:34.372Z,27.23
2019-06-15T06:18:21.463Z,28.36
2019-06-15T06:21:09.096Z,27.89
2019-06-15T06:23:56.119Z,28.15
2019-06-15T06:26:43.242Z,28.26
2019-06-15T06:29:30.778Z,28.36
2019-06-15T06:32:18.118Z,28.42
2019-06-15T06:35:04.812Z,29.59
2019-06-15T06:37:55.154Z,29.03
2019-06-15T06:40:42.127Z,29.21
2019-06-15T06:46:34.872Z,29.59
2019-06-15T06:49:36.241Z,29.79
2019-06-15T06:52:30.246Z,30.04
2019-06-15T06:55:17.204Z,30.30
2019-06-15T06:58:04.101Z,30.40
2019-06-15T07:04:11.513Z,30.32
2019-06-15T07:06:58.359Z,30.28
2019-06-15T07:09:45.244Z,30.33
2019-06-15T07:12:48.154Z,31.42
2019-06-15T07:15:34.958Z,30.63
2019-06-15T07:18:22.524Z,30.59
2019-06-15T07:21:10.298Z,30.57
2019-06-15T07:24:13.061Z,30.59
2019-06-15T07:26:59.088Z,30.63
2019-06-15T07:29:46.091Z,30.66
2019-06-15T07:32:40.015Z,30.74
2019-06-15T07:35:27.583Z,31.93
2019-06-15T07:41:36.113Z,31.39
2019-06-15T07:44:22.810Z,31.47
2019-06-15T07:56:28.066Z,31.14
2019-06-15T07:59:15.518Z,31.07
2019-06-15T08:02:02.090Z,31.28
2019-06-15T08:08:13.294Z,31.69
2019-06-15T08:14:06.408Z,32.63
2019-06-15T08:16:54.285Z,32.03
2019-06-15T08:22:48.353Z,31.85
2019-06-15T08:31:48.185Z,31.96
2019-06-15T08:34:42.167Z,32.12
2019-06-15T08:37:29.289Z,32.24
2019-06-15T08:40:16.030Z,32.43
2019-06-15T08:49:19.959Z,32.83
2019-06-15T08:52:07.507Z,32.94
2019-06-15T08:54:54.788Z,33.07
2019-06-15T08:57:41.836Z,33.19
2019-06-15T09:00:28.933Z,33.27
2019-06-15T09:03:16.275Z,33.40
2019-06-15T09:06:03.668Z,33.47
2019-06-15T09:11:57.261Z,33.34
2019-06-15T09:17:50.595Z,33.37
2019-06-15T09:20:37.205Z,33.42
2019-06-15T09:23:24.043Z,33.35
2019-06-15T09:26:14.592Z,33.29
2019-06-15T09:29:11.579Z,33.21
2019-06-15T09:31:55.343Z,32.99
2019-06-15T09:34:45.929Z,32.94
2019-06-15T09:37:36.728Z,32.89
2019-06-15T09:40:25.389Z,32.92
2019-06-15T09:43:12.289Z,34.12
2019-06-15T09:46:06.584Z,33.10
2019-06-15T09:49:00.806Z,32.84
2019-06-15T09:51:48.741Z,32.69
2019-06-15T09:54:37.723Z,32.72
2019-06-15T09:57:27.932Z,32.84
2019-06-15T10:00:14.868Z,32.97
2019-06-15T10:06:11.744Z,33.45
2019-06-15T10:08:57.056Z,33.40
2019-06-15T10:11:56.512Z,33.29
2019-06-15T10:20:55.317Z,32.96
2019-06-15T10:26:52.554Z,32.70
2019-06-15T10:29:42.839Z,32.55
2019-06-15T10:38:44.090Z,32.54
2019-06-15T10:41:31.862Z,32.57
2019-06-15T10:44:19.003Z,32.67
2019-06-15T10:47:06.257Z,32.69
2019-06-15T10:52:59.522Z,33.16
2019-06-15T11:01:57.775Z,33.71
2019-06-15T11:04:45.272Z,33.77
2019-06-15T11:11:00.360Z,34.19
2019-06-15T11:13:46.926Z,33.99
2019-06-15T11:16:33.709Z,33.91
2019-06-15T11:19:23.839Z,34.05
2019-06-15T11:22:11.221Z,34.12
2019-06-15T11:24:58.298Z,34.25
2019-06-15T11:30:52.685Z,34.25
2019-06-15T11:33:54.330Z,34.42
2019-06-15T11:36:41.037Z,34.60
2019-06-15T11:42:35.343Z,34.93
2019-06-15T11:48:28.231Z,34.84
2019-06-15T11:51:19.005Z,34.81
2019-06-15T11:54:05.977Z,34.64
2019-06-15T11:56:53.451Z,34.17
2019-06-15T11:59:40.286Z,35.46
2019-06-15T12:02:28.205Z,34.33
2019-06-15T12:05:15.430Z,34.07
2019-06-15T12:08:02.414Z,33.79
2019-06-15T12:10:49.963Z,33.67
2019-06-15T12:13:36.504Z,33.56
2019-06-15T12:19:29.081Z,34.68
2019-06-15T12:22:16.761Z,33.73
2019-06-15T12:25:03.669Z,33.49
2019-06-15T12:27:51.303Z,33.50
2019-06-15T12:30:46.502Z,33.36
2019-06-15T12:33:33.221Z,33.20
2019-06-15T12:36:21.973Z,33.30
2019-06-15T12:39:09.309Z,34.41
2019-06-15T12:41:56.100Z,33.40
2019-06-15T12:44:42.819Z,33.26
2019-06-15T12:47:30.427Z,33.07
2019-06-15T12:50:18.022Z,33.09
2019-06-15T12:53:06.016Z,33.01
2019-06-15T12:55:53.225Z,32.99
2019-06-15T12:58:40.363Z,33.11
2019-06-15T13:01:28.066Z,33.19
2019-06-15T13:04:16.320Z,33.32
2019-06-15T13:10:12.756Z,33.70
2019-06-15T13:13:03.212Z,33.76
2019-06-15T13:18:56.222Z,33.48
2019-06-15T13:21:43.320Z,34.67
2019-06-15T13:24:30.389Z,33.81
2019-06-15T13:27:17.708Z,34.90
2019-06-15T13:33:17.903Z,34.02
2019-06-15T13:36:05.804Z,33.69
2019-06-15T13:38:53.508Z,33.16
2019-06-15T13:44:46.598Z,32.42
2019-06-15T13:50:39.811Z,32.38
2019-06-15T13:53:27.485Z,33.66
2019-06-15T13:56:15.034Z,33.97
2019-06-15T13:59:02.308Z,33.39
2019-06-15T14:01:49.921Z,33.21
2019-06-15T14:04:36.760Z,33.36
2019-06-15T14:07:23.456Z,33.33
2019-06-15T14:10:17.287Z,33.20
2019-06-15T14:13:04.626Z,33.34
2019-06-15T14:15:51.563Z,33.49
2019-06-15T14:18:38.868Z,33.57
2019-06-15T14:21:25.580Z,33.73
2019-06-15T14:24:12.106Z,33.59
2019-06-15T14:26:58.765Z,33.74
2019-06-15T14:30:00.209Z,33.92
2019-06-15T14:32:47.051Z,34.12
2019-06-15T14:38:39.445Z,34.03
2019-06-15T14:41:26.328Z,34.13
2019-06-15T14:44:14.072Z,34.26
2019-06-15T14:47:04.435Z,34.36
2019-06-15T14:49:54.029Z,34.53
2019-06-15T14:52:40.925Z,34.67
2019-06-15T14:55:28.655Z,35.19
2019-06-15T14:58:17.145Z,35.28
2019-06-15T15:01:02.620Z,35.53
2019-06-15T15:03:50.135Z,35.49
2019-06-15T15:06:47.044Z,36.89
2019-06-15T15:12:36.990Z,35.95
2019-06-15T15:15:23.665Z,35.72
2019-06-15T15:18:10.682Z,37.17
2019-06-15T15:21:06.848Z,36.11
2019-06-15T15:23:51.903Z,35.92
2019-06-15T15:29:46.396Z,36.00
2019-06-15T15:32:32.910Z,35.98
2019-06-15T15:35:20.129Z,36.27
2019-06-15T15:38:07.360Z,36.58
2019-06-15T15:40:56.131Z,36.86
2019-06-15T15:43:41.072Z,36.88
2019-06-15T15:46:28.278Z,36.40
2019-06-15T15:52:26.908Z,35.78
2019-06-15T15:55:11.220Z,35.86
2019-06-15T15:58:06.793Z,36.01
2019-06-15T16:01:06.770Z,35.99
2019-06-15T16:04:01.109Z,35.97
2019-06-15T16:09:54.625Z,36.39
2019-06-15T16:12:48.732Z,36.42
2019-06-15T16:15:37.220Z,36.59
2019-06-15T16:18:24.298Z,36.71
2019-06-15T16:24:17.641Z,36.49
2019-06-15T16:27:26.356Z,38.40
2019-06-15T16:30:08.670Z,37.08
2019-06-15T16:33:04.235Z,36.66
2019-06-15T16:35:50.484Z,36.74
2019-06-15T16:38:38.508Z,38.77
2019-06-15T16:41:25.905Z,37.27
2019-06-15T16:44:12.543Z,38.39
2019-06-15T16:46:59.762Z,36.54
2019-06-15T16:49:47.294Z,35.64
2019-06-15T16:52:36.389Z,34.83
2019-06-15T16:55:22.334Z,34.32
2019-06-15T16:58:12.914Z,34.04
2019-06-15T17:00:59.514Z,34.64
2019-06-15T17:03:47.204Z,35.78
2019-06-15T17:06:33.665Z,36.56
2019-06-15T17:09:20.311Z,36.83
2019-06-15T17:12:07.303Z,37.02
2019-06-15T17:14:54.511Z,37.49
2019-06-15T17:17:41.746Z,37.53
2019-06-15T17:20:29.088Z,37.73
2019-06-15T17:23:16.500Z,37.54
2019-06-15T17:26:03.081Z,37.55
2019-06-15T17:28:50.734Z,37.39
2019-06-15T17:31:37.837Z,36.35
2019-06-15T17:34:26.180Z,35.06
2019-06-15T17:37:11.669Z,34.06
2019-06-15T17:39:58.735Z,33.23
2019-06-15T17:42:46.212Z,32.53
2019-06-15T17:45:34.070Z,31.97
2019-06-15T17:48:20.983Z,31.43
2019-06-15T17:51:11.471Z,32.34
2019-06-15T17:53:58.601Z,31.02
2019-06-15T17:56:46.209Z,30.49
2019-06-15T17:59:36.299Z,30.09
2019-06-15T18:02:21.261Z,29.73
2019-06-15T18:05:08.381Z,30.54
2019-06-15T18:08:00.840Z,29.52
2019-06-15T18:10:43.021Z,29.20
2019-06-15T18:13:30.070Z,29.96
2019-06-15T18:16:17.444Z,29.87
2019-06-15T18:19:06.807Z,28.78
2019-06-15T18:21:52.013Z,28.41
2019-06-15T18:24:39.737Z,28.14
2019-06-15T18:27:27.248Z,27.80
2019-06-15T18:30:13.721Z,27.45
2019-06-15T18:33:01.473Z,27.29
2019-06-15T18:35:48.100Z,27.12
2019-06-15T18:38:49.320Z,26.97
2019-06-15T18:44:42.665Z,26.95
2019-06-15T18:47:29.415Z,26.68
2019-06-15T18:50:17.159Z,27.39
2019-06-15T18:53:06.921Z,26.68
2019-06-15T18:55:51.920Z,26.53
2019-06-15T18:58:39.101Z,26.40
2019-06-15T19:01:27.073Z,26.25
2019-06-15T19:04:26.833Z,26.09
2019-06-15T19:07:01.396Z,26.78
2019-06-15T19:09:48.011Z,26.12
2019-06-15T19:12:35.895Z,25.93
2019-06-15T19:15:22.854Z,25.79
2019-06-15T19:18:10.523Z,25.58
2019-06-15T19:21:11.255Z,25.39
2019-06-15T19:23:58.544Z,25.23
2019-06-15T19:26:46.060Z,25.12
2019-06-15T19:29:33.026Z,25.01
2019-06-15T19:32:19.834Z,24.90
2019-06-15T19:35:07.891Z,24.80
2019-06-15T19:37:56.705Z,24.68
2019-06-15T19:40:43.195Z,24.57
2019-06-15T19:46:36.646Z,24.61
2019-06-15T19:49:25.758Z,24.45
2019-06-15T19:52:10.605Z,24.30
2019-06-15T19:54:57.737Z,24.16
2019-06-15T19:57:46.576Z,24.04
2019-06-15T20:00:38.569Z,23.90
2019-06-15T20:03:27.334Z,23.79
2019-06-15T20:06:12.670Z,23.67
2019-06-15T20:08:59.965Z,23.56
2019-06-15T20:11:47.181Z,23.44
2019-06-15T20:14:36.569Z,23.36
2019-06-15T20:17:27.804Z,23.26
2019-06-15T20:23:20.975Z,23.03
2019-06-15T20:26:07.678Z,23.59
2019-06-15T20:28:56.429Z,23.06
2019-06-15T20:31:42.000Z,22.92
2019-06-15T20:34:28.568Z,22.78
2019-06-15T20:37:16.926Z,22.70
2019-06-15T20:40:03.342Z,23.26
2019-06-15T20:42:50.253Z,22.74
2019-06-15T20:45:37.274Z,23.24
2019-06-15T20:48:31.387Z,22.66
2019-06-15T20:51:27.073Z,22.45
2019-06-15T20:54:17.936Z,22.31
2019-06-15T20:57:06.447Z,22.19
2019-06-15T20:59:51.973Z,22.11
2019-06-15T21:02:40.651Z,22.01
2019-06-15T21:05:37.249Z,21.94
2019-06-15T21:08:16.000Z,21.88
2019-06-15T21:11:01.507Z,21.79
2019-06-15T21:13:48.488Z,21.65
2019-06-15T21:16:37.044Z,21.59
2019-06-15T21:19:22.238Z,21.51
2019-06-15T21:25:17.366Z,21.43
2019-06-15T21:28:02.432Z,21.39
2019-06-15T21:30:49.461Z,21.34
2019-06-15T21:33:36.956Z,21.32
2019-06-15T21:36:25.912Z,21.27
2019-06-15T21:42:16.756Z,21.17
2019-06-15T21:45:03.646Z,21.14
2019-06-15T21:51:03.468Z,21.06
2019-06-15T21:53:50.453Z,21.01
2019-06-15T21:56:38.209Z,20.99
2019-06-15T21:59:26.106Z,20.93
2019-06-15T22:02:12.651Z,20.87
2019-06-15T22:04:59.475Z,20.81
2019-06-15T22:07:47.648Z,21.37
2019-06-15T22:10:35.951Z,20.91
2019-06-15T22:13:20.542Z,20.79
2019-06-15T22:16:07.647Z,20.72
2019-06-15T22:18:54.969Z,20.66
2019-06-15T22:21:43.916Z,20.60
2019-06-15T22:24:30.632Z,20.55
2019-06-15T22:27:17.590Z,20.47
2019-06-15T22:30:07.938Z,20.38
2019-06-15T22:32:56.231Z,20.34
2019-06-15T22:35:42.460Z,20.30
2019-06-15T22:38:29.379Z,20.25
2019-06-15T22:41:17.883Z,20.22
2019-06-15T22:47:12.436Z,20.14
2019-06-15T22:53:09.236Z,20.04
2019-06-15T22:55:58.259Z,20.04
2019-06-15T23:04:56.735Z,19.94
2019-06-15T23:07:47.308Z,19.91
2019-06-15T23:10:36.669Z,19.89
2019-06-15T23:13:21.430Z,19.85
2019-06-15T23:16:08.813Z,19.80
2019-06-15T23:18:57.241Z,19.74
2019-06-15T23:25:05.905Z,19.64
2019-06-15T23:30:57.581Z,19.55
2019-06-15T23:33:46.735Z,20.10
2019-06-15T23:36:52.480Z,19.65
2019-06-15T23:39:22.841Z,20.16
2019-06-15T23:45:18.681Z,19.75
2019-06-15T23:48:08.346Z,19.60
2019-06-15T23:50:56.903Z,19.46
2019-06-15T23:53:42.903Z,19.98
2019-06-15T23:56:30.037Z,20.03
2019-06-15T23:59:18.879Z,20.01
